ADDS TAF Board (Experimental) INFO Settings
IDs: Format: Expanded Condensed

KMCO - Orlando Intl, FL, US

Issued at 1740 UTC 27 Aug 2016
Updated at 1842 UTC 27 Aug 2016
Time1753Z 27/19Z 27/20Z 27/21Z 27/22Z 27/23Z 28/00Z 28/01Z 28/02Z 28/03Z 28/04Z 28/05Z 28/06Z 28/07Z
Type OBS PRVL PRVL PRVL PRVL PRVL PRVL PRVL PRVL PRVL PRVL PRVL PRVL PRVL
VIS 10 >6 >6 >6 >6 >6 >6 >6 >6 >6 >6 >6 >6 >6
CIG 40 60 60 60 60 60 -- -- -- -- -- -- -- --
Cover BKN BKN BKN BKN BKN BKN SCT SCT SCT SCT SCT SCT SCT SCT
FltCat VFR VFR VFR VFR VFR VFR VFR VFR VFR VFR VFR VFR VFR VFR
WX -- VCSH VCSH VCSH VCSH VCSH -- -- -- -- -- -- -- --
WDir 60 60 60 60 60 60 50 50 50 50 50 50 50 50
WSpd 10 12 12 12 12 12 7 7 7 7 7 7 7 7
WGst -- 18 18 18 18 18 -- -- -- -- -- -- -- --
R17/35
XWnd 9 10 10 10 10 10 5 5 5 5 5 5 5 5
XGst -- 16 16 16 16 16 -- -- -- -- -- -- -- --
HWnd -5 -6 -6 -6 -6 -6 -4 -4 -4 -4 -4 -4 -4 -4
HGst -- -9 -9 -9 -9 -9 -- -- -- -- -- -- -- --
R18/36
XWnd 9 10 10 10 10 10 5 5 5 5 5 5 5 5
XGst -- 16 16 16 16 16 -- -- -- -- -- -- -- --
HWnd -5 -6 -6 -6 -6 -6 -4 -4 -4 -4 -4 -4 -4 -4
HGst -- -9 -9 -9 -9 -9 -- -- -- -- -- -- -- --

Raw TAF
KMCO 271740Z 2718/2818 06012G18KT P6SM VCSH SCT040 BKN060 BKN250
  FM280000 05007KT P6SM FEW030 SCT070 SCT250
  FM281400 07009KT P6SM SCT025 BKN050


Raw METAR
KMCO 271753Z 06010KT 10SM BKN040 BKN250 32/23 A2996 RMK AO2 SLP144 T03220228 10328 20261 58008
KMCO 271653Z 04010G15KT 020V090 10SM BKN032 BKN250 32/23 A2998 RMK AO2 SLP150 T03170228
KMCO 271553Z 06013G18KT 10SM SCT033 SCT130 BKN250 31/23 A2999 RMK AO2 SLP153 T03110233

METAR Board
Radar Display
Forecast Discussion

TAF Board Legend

Potential Impact
Threat None Slight Moderate High
Visibility (sm) ≥5.1 5.1>X≥3 3>X≥1 <1
Ceiling (100 ft) ≥30.1 30.1>X≥10 10>X≥5 <5
Wind Speed (kt) <10 10≤X<20 20≤X<30 ≥30
Wind Gust (kt) <15 15≤X<25 25≤X<35 ≥35
Weather No Wx Reported VCTS,-TS,-FZRA,SN TS,FZRA +TS,+FZRA,+SN